sensor_id;sensor_type;location;lat;lon;timestamp;pressure;altitude;pressure_sealevel;temperature;humidity
71857;BME280;63344;46.980;28.882;2023-03-13T00:01:38;101185.06;;;-1.37;70.82
71857;BME280;63344;46.980;28.882;2023-03-13T00:04:06;101183.31;;;-1.38;70.81
71857;BME280;63344;46.980;28.882;2023-03-13T00:06:36;101188.47;;;-1.41;70.82
71857;BME280;63344;46.980;28.882;2023-03-13T00:09:06;101195.38;;;-1.43;70.78
71857;BME280;63344;46.980;28.882;2023-03-13T00:11:35;101204.94;;;-1.42;71.24
71857;BME280;63344;46.980;28.882;2023-03-13T00:14:03;101196.22;;;-1.44;72.02
71857;BME280;63344;46.980;28.882;2023-03-13T00:16:31;101196.22;;;-1.46;71.69
71857;BME280;63344;46.980;28.882;2023-03-13T00:19:03;101204.81;;;-1.48;71.51
71857;BME280;63344;46.980;28.882;2023-03-13T00:21:32;101204.84;;;-1.47;71.48
71857;BME280;63344;46.980;28.882;2023-03-13T00:24:00;101203.97;;;-1.47;71.34
71857;BME280;63344;46.980;28.882;2023-03-13T00:26:28;101210.03;;;-1.48;71.58
71857;BME280;63344;46.980;28.882;2023-03-13T00:28:56;101203.06;;;-1.49;71.94
71857;BME280;63344;46.980;28.882;2023-03-13T00:31:26;101201.34;;;-1.49;71.79
71857;BME280;63344;46.980;28.882;2023-03-13T00:33:58;101198.72;;;-1.49;71.93
71857;BME280;63344;46.980;28.882;2023-03-13T00:36:30;101191.69;;;-1.54;71.99
71857;BME280;63344;46.980;28.882;2023-03-13T00:39:03;101199.50;;;-1.54;71.94
71857;BME280;63344;46.980;28.882;2023-03-13T00:41:31;101202.06;;;-1.57;71.69
71857;BME280;63344;46.980;28.882;2023-03-13T00:43:59;101196.72;;;-1.64;71.92
71857;BME280;63344;46.980;28.882;2023-03-13T00:46:28;101198.34;;;-1.69;72.49
71857;BME280;63344;46.980;28.882;2023-03-13T00:48:56;101213.19;;;-1.65;73.24
71857;BME280;63344;46.980;28.882;2023-03-13T00:51:24;101204.44;;;-1.67;73.41
71857;BME280;63344;46.980;28.882;2023-03-13T00:53:58;101211.41;;;-1.67;72.89
71857;BME280;63344;46.980;28.882;2023-03-13T00:56:27;101205.31;;;-1.68;73.15
71857;BME280;63344;46.980;28.882;2023-03-13T00:58:55;101205.25;;;-1.71;72.50
71857;BME280;63344;46.980;28.882;2023-03-13T01:03:55;101200.88;;;-1.72;72.44
71857;BME280;63344;46.980;28.882;2023-03-13T01:06:25;101200.78;;;-1.76;72.45
71857;BME280;63344;46.980;28.882;2023-03-13T01:08:53;101190.41;;;-1.75;72.48
71857;BME280;63344;46.980;28.882;2023-03-13T01:11:24;101192.88;;;-1.81;72.82
71857;BME280;63344;46.980;28.882;2023-03-13T01:13:56;101203.38;;;-1.76;73.06
71857;BME280;63344;46.980;28.882;2023-03-13T01:16:25;101194.63;;;-1.82;73.25
71857;BME280;63344;46.980;28.882;2023-03-13T01:18:56;101198.00;;;-1.84;73.41
71857;BME280;63344;46.980;28.882;2023-03-13T01:21:25;101190.97;;;-1.88;73.38
71857;BME280;63344;46.980;28.882;2023-03-13T01:23:53;101196.16;;;-1.91;73.28
71857;BME280;63344;46.980;28.882;2023-03-13T01:26:20;101197.88;;;-1.90;73.35
71857;BME280;63344;46.980;28.882;2023-03-13T01:28:48;101207.38;;;-1.92;72.99
71857;BME280;63344;46.980;28.882;2023-03-13T01:31:20;101204.75;;;-1.94;73.11
71857;BME280;63344;46.980;28.882;2023-03-13T01:33:50;101210.84;;;-1.92;73.30
71857;BME280;63344;46.980;28.882;2023-03-13T01:36:19;101216.06;;;-1.93;73.29
71857;BME280;63344;46.980;28.882;2023-03-13T01:38:48;101218.56;;;-1.96;73.46
71857;BME280;63344;46.980;28.882;2023-03-13T01:41:17;101222.00;;;-1.99;73.63
71857;BME280;63344;46.980;28.882;2023-03-13T01:43:45;101225.44;;;-2.00;73.73
71857;BME280;63344;46.980;28.882;2023-03-13T01:46:20;101223.69;;;-2.01;73.46
71857;BME280;63344;46.980;28.882;2023-03-13T01:51:38;101232.31;;;-2.02;73.93
71857;BME280;63344;46.980;28.882;2023-03-13T01:54:09;101229.59;;;-2.08;73.91
71857;BME280;63344;46.980;28.882;2023-03-13T01:56:52;101239.22;;;-2.06;74.08
71857;BME280;63344;46.980;28.882;2023-03-13T01:59:31;101246.06;;;-2.08;74.22
71857;BME280;63344;46.980;28.882;2023-03-13T02:02:02;101257.28;;;-2.10;74.59
71857;BME280;63344;46.980;28.882;2023-03-13T02:04:37;101244.91;;;-2.21;74.88
71857;BME280;63344;46.980;28.882;2023-03-13T02:07:10;101270.13;;;-2.19;75.19
71857;BME280;63344;46.980;28.882;2023-03-13T02:09:41;101264.00;;;-2.20;75.58
71857;BME280;63344;46.980;28.882;2023-03-13T02:12:12;101263.13;;;-2.21;76.00
71857;BME280;63344;46.980;28.882;2023-03-13T02:14:43;101277.78;;;-2.24;76.25
71857;BME280;63344;46.980;28.882;2023-03-13T02:17:11;101289.88;;;-2.26;76.26
71857;BME280;63344;46.980;28.882;2023-03-13T02:19:46;101288.09;;;-2.29;77.13
71857;BME280;63344;46.980;28.882;2023-03-13T02:28:00;101305.03;;;-2.45;78.87
71857;BME280;63344;46.980;28.882;2023-03-13T02:30:30;101307.53;;;-2.49;79.04
71857;BME280;63344;46.980;28.882;2023-03-13T02:32:59;101315.28;;;-2.51;79.26
71857;BME280;63344;46.980;28.882;2023-03-13T02:35:26;101319.56;;;-2.53;79.12
71857;BME280;63344;46.980;28.882;2023-03-13T02:37:56;101321.25;;;-2.55;78.88
71857;BME280;63344;46.980;28.882;2023-03-13T02:40:32;101314.16;;;-2.61;78.91
71857;BME280;63344;46.980;28.882;2023-03-13T02:43:06;101323.69;;;-2.61;78.61
71857;BME280;63344;46.980;28.882;2023-03-13T02:45:35;101321.88;;;-2.64;78.68
71857;BME280;63344;46.980;28.882;2023-03-13T02:48:02;101324.47;;;-2.64;78.62
71857;BME280;63344;46.980;28.882;2023-03-13T02:50:29;101317.63;;;-2.62;79.16
71857;BME280;63344;46.980;28.882;2023-03-13T02:53:00;101327.28;;;-2.56;79.10
71857;BME280;63344;46.980;28.882;2023-03-13T02:55:40;101336.91;;;-2.52;78.92
71857;BME280;63344;46.980;28.882;2023-03-13T02:58:08;101334.28;;;-2.53;78.51
71857;BME280;63344;46.980;28.882;2023-03-13T03:00:36;101343.78;;;-2.54;78.90
71857;BME280;63344;46.980;28.882;2023-03-13T03:03:03;101333.50;;;-2.51;78.79
71857;BME280;63344;46.980;28.882;2023-03-13T03:05:31;101337.84;;;-2.50;78.74
71857;BME280;63344;46.980;28.882;2023-03-13T03:07:58;101324.78;;;-2.53;78.90
71857;BME280;63344;46.980;28.882;2023-03-13T03:10:25;101339.50;;;-2.53;78.67
71857;BME280;63344;46.980;28.882;2023-03-13T03:12:52;101329.72;;;-2.62;78.71
71857;BME280;63344;46.980;28.882;2023-03-13T03:15:20;101339.41;;;-2.56;78.56
71857;BME280;63344;46.980;28.882;2023-03-13T03:17:48;101338.38;;;-2.63;78.88
71857;BME280;63344;46.980;28.882;2023-03-13T03:20:15;101347.00;;;-2.64;78.53
71857;BME280;63344;46.980;28.882;2023-03-13T03:22:42;101351.97;;;-2.72;78.63
71857;BME280;63344;46.980;28.882;2023-03-13T03:25:11;101355.38;;;-2.74;78.88
71857;BME280;63344;46.980;28.882;2023-03-13T03:27:38;101358.69;;;-2.80;78.96
71857;BME280;63344;46.980;28.882;2023-03-13T03:30:06;101360.41;;;-2.81;79.04
71857;BME280;63344;46.980;28.882;2023-03-13T03:32:33;101350.03;;;-2.81;79.62
71857;BME280;63344;46.980;28.882;2023-03-13T03:35:01;101349.09;;;-2.83;79.41
71857;BME280;63344;46.980;28.882;2023-03-13T03:37:28;101358.53;;;-2.86;79.38
71857;BME280;63344;46.980;28.882;2023-03-13T03:39:57;101363.78;;;-2.85;79.40
71857;BME280;63344;46.980;28.882;2023-03-13T03:42:24;101361.06;;;-2.88;79.65
71857;BME280;63344;46.980;28.882;2023-03-13T03:44:51;101355.13;;;-2.84;79.75
71857;BME280;63344;46.980;28.882;2023-03-13T03:47:18;101351.66;;;-2.84;80.03
71857;BME280;63344;46.980;28.882;2023-03-13T03:49:46;101349.09;;;-2.83;80.22
71857;BME280;63344;46.980;28.882;2023-03-13T03:52:13;101347.31;;;-2.85;79.51
71857;BME280;63344;46.980;28.882;2023-03-13T03:54:40;101355.97;;;-2.85;79.59
71857;BME280;63344;46.980;28.882;2023-03-13T03:57:08;101355.13;;;-2.84;79.69
71857;BME280;63344;46.980;28.882;2023-03-13T03:59:35;101352.47;;;-2.87;79.93
71857;BME280;63344;46.980;28.882;2023-03-13T04:02:02;101358.63;;;-2.83;79.85
71857;BME280;63344;46.980;28.882;2023-03-13T04:04:30;101362.03;;;-2.84;80.01
71857;BME280;63344;46.980;28.882;2023-03-13T04:06:57;101358.56;;;-2.85;79.79
71857;BME280;63344;46.980;28.882;2023-03-13T04:09:25;101364.53;;;-2.89;80.20
71857;BME280;63344;46.980;28.882;2023-03-13T04:11:52;101354.84;;;-2.94;80.29
71857;BME280;63344;46.980;28.882;2023-03-13T04:14:19;101359.13;;;-2.96;80.17
71857;BME280;63344;46.980;28.882;2023-03-13T04:16:46;101357.31;;;-2.99;80.19
71857;BME280;63344;46.980;28.882;2023-03-13T04:19:14;101361.59;;;-3.01;80.15
71857;BME280;63344;46.980;28.882;2023-03-13T04:21:41;101366.09;;;-2.95;80.48
71857;BME280;63344;46.980;28.882;2023-03-13T04:24:08;101356.44;;;-2.99;80.68
71857;BME280;63344;46.980;28.882;2023-03-13T04:26:35;101362.63;;;-2.94;80.92
71857;BME280;63344;46.980;28.882;2023-03-13T04:29:34;101375.69;;;-2.93;80.79
71857;BME280;63344;46.980;28.882;2023-03-13T04:32:03;101375.75;;;-2.90;81.03
71857;BME280;63344;46.980;28.882;2023-03-13T04:34:32;101364.34;;;-2.95;80.82
71857;BME280;63344;46.980;28.882;2023-03-13T04:37:01;101378.41;;;-2.88;81.19
71857;BME280;63344;46.980;28.882;2023-03-13T04:39:28;101381.03;;;-2.87;81.21
71857;BME280;63344;46.980;28.882;2023-03-13T04:41:59;101373.16;;;-2.90;81.19
71857;BME280;63344;46.980;28.882;2023-03-13T04:44:26;101382.94;;;-2.81;81.31
71857;BME280;63344;46.980;28.882;2023-03-13T04:46:53;101377.75;;;-2.81;81.43
71857;BME280;63344;46.980;28.882;2023-03-13T04:49:21;101384.91;;;-2.72;81.44
71857;BME280;63344;46.980;28.882;2023-03-13T04:51:48;101389.41;;;-2.67;81.39
71857;BME280;63344;46.980;28.882;2023-03-13T04:54:15;101382.63;;;-2.62;81.41
71857;BME280;63344;46.980;28.882;2023-03-13T04:56:43;101391.50;;;-2.53;81.32
71857;BME280;63344;46.980;28.882;2023-03-13T04:59:11;101386.31;;;-2.52;81.13
71857;BME280;63344;46.980;28.882;2023-03-13T05:01:40;101390.75;;;-2.48;81.11
71857;BME280;63344;46.980;28.882;2023-03-13T05:04:10;101391.03;;;-2.38;81.26
71857;BME280;63344;46.980;28.882;2023-03-13T05:06:38;101397.34;;;-2.29;81.03
71857;BME280;63344;46.980;28.882;2023-03-13T05:09:05;101391.50;;;-2.20;81.17
71857;BME280;63344;46.980;28.882;2023-03-13T05:11:33;101403.94;;;-2.08;80.97
71857;BME280;63344;46.980;28.882;2023-03-13T05:14:01;101399.88;;;-1.97;80.39
71857;BME280;63344;46.980;28.882;2023-03-13T05:16:28;101408.84;;;-1.86;79.79
71857;BME280;63344;46.980;28.882;2023-03-13T05:19:05;101406.50;;;-1.75;79.88
71857;BME280;63344;46.980;28.882;2023-03-13T05:21:33;101418.03;;;-1.65;79.63
71857;BME280;63344;46.980;28.882;2023-03-13T05:24:00;101415.56;;;-1.59;79.59
71857;BME280;63344;46.980;28.882;2023-03-13T05:26:28;101420.06;;;-1.52;78.89
71857;BME280;63344;46.980;28.882;2023-03-13T05:28:55;101416.72;;;-1.48;78.58
71857;BME280;63344;46.980;28.882;2023-03-13T05:31:23;101408.22;;;-1.39;78.60
71857;BME280;63344;46.980;28.882;2023-03-13T05:33:54;101417.25;;;-1.23;78.20
71857;BME280;63344;46.980;28.882;2023-03-13T05:37:01;101421.13;;;-1.06;77.54
71857;BME280;63344;46.980;28.882;2023-03-13T05:39:28;101426.53;;;-0.95;77.12
71857;BME280;63344;46.980;28.882;2023-03-13T05:41:58;101426.69;;;-0.89;76.59
71857;BME280;63344;46.980;28.882;2023-03-13T05:44:28;101436.59;;;-0.71;76.38
71857;BME280;63344;46.980;28.882;2023-03-13T05:46:58;101439.38;;;-0.63;75.62
71857;BME280;63344;46.980;28.882;2023-03-13T05:49:30;101445.78;;;-0.47;75.35
71857;BME280;63344;46.980;28.882;2023-03-13T05:51:59;101438.94;;;-0.41;75.09
71857;BME280;63344;46.980;28.882;2023-03-13T05:54:28;101432.09;;;-0.35;74.98
71857;BME280;63344;46.980;28.882;2023-03-13T05:57:21;101441.88;;;-0.24;74.40
71857;BME280;63344;46.980;28.882;2023-03-13T05:59:48;101443.69;;;-0.19;73.96
71857;BME280;63344;46.980;28.882;2023-03-13T06:02:16;101438.66;;;-0.09;73.65
71857;BME280;63344;46.980;28.882;2023-03-13T06:04:46;101441.41;;;-0.01;73.79
71857;BME280;63344;46.980;28.882;2023-03-13T06:07:35;101438.25;;;0.17;71.96
71857;BME280;63344;46.980;28.882;2023-03-13T06:10:03;101431.56;;;0.34;72.11
71857;BME280;63344;46.980;28.882;2023-03-13T06:12:31;101433.59;;;0.54;71.88
71857;BME280;63344;46.980;28.882;2023-03-13T06:14:59;101435.72;;;0.78;71.79
71857;BME280;63344;46.980;28.882;2023-03-13T06:17:26;101430.69;;;0.93;71.82
71857;BME280;63344;46.980;28.882;2023-03-13T06:19:55;101427.44;;;1.08;71.08
71857;BME280;63344;46.980;28.882;2023-03-13T06:22:22;101430.28;;;1.30;69.79
71857;BME280;63344;46.980;28.882;2023-03-13T06:24:59;101427.13;;;1.54;68.65
71857;BME280;63344;46.980;28.882;2023-03-13T06:27:26;101426.44;;;1.72;68.07
71857;BME280;63344;46.980;28.882;2023-03-13T06:30:11;101424.94;;;1.98;67.89
71857;BME280;63344;46.980;28.882;2023-03-13T06:32:41;101426.88;;;2.18;66.85
71857;BME280;63344;46.980;28.882;2023-03-13T06:35:10;101432.28;;;2.38;65.34
71857;BME280;63344;46.980;28.882;2023-03-13T06:37:40;101436.78;;;2.56;64.43
71857;BME280;63344;46.980;28.882;2023-03-13T06:40:11;101434.28;;;2.74;64.62
71857;BME280;63344;46.980;28.882;2023-03-13T06:42:39;101425.66;;;2.94;62.44
71857;BME280;63344;46.980;28.882;2023-03-13T06:45:07;101434.50;;;3.14;61.13
71857;BME280;63344;46.980;28.882;2023-03-13T06:47:34;101420.53;;;3.25;58.55
71857;BME280;63344;46.980;28.882;2023-03-13T06:50:01;101431.13;;;3.42;58.50
71857;BME280;63344;46.980;28.882;2023-03-13T06:52:29;101421.50;;;3.47;59.06
71857;BME280;63344;46.980;28.882;2023-03-13T06:55:09;101428.56;;;3.62;59.43
71857;BME280;63344;46.980;28.882;2023-03-13T06:57:36;101419.84;;;3.72;58.95
71857;BME280;63344;46.980;28.882;2023-03-13T07:00:04;101425.97;;;3.83;59.02
71857;BME280;63344;46.980;28.882;2023-03-13T07:02:32;101432.13;;;3.88;57.93
71857;BME280;63344;46.980;28.882;2023-03-13T07:04:59;101424.25;;;3.94;58.65
71857;BME280;63344;46.980;28.882;2023-03-13T07:07:32;101422.50;;;4.09;58.39
71857;BME280;63344;46.980;28.882;2023-03-13T07:09:59;101410.25;;;4.15;58.16
71857;BME280;63344;46.980;28.882;2023-03-13T07:12:32;101412.91;;;4.22;57.15
71857;BME280;63344;46.980;28.882;2023-03-13T07:15:01;101412.88;;;4.29;56.83
71857;BME280;63344;46.980;28.882;2023-03-13T07:17:29;101415.50;;;4.45;57.12
71857;BME280;63344;46.980;28.882;2023-03-13T07:19:57;101416.38;;;4.64;56.31
71857;BME280;63344;46.980;28.882;2023-03-13T07:22:24;101405.81;;;4.84;55.08
71857;BME280;63344;46.980;28.882;2023-03-13T07:24:51;101390.84;;;4.96;54.92
71857;BME280;63344;46.980;28.882;2023-03-13T07:27:18;101396.94;;;5.08;52.66
71857;BME280;63344;46.980;28.882;2023-03-13T07:29:48;101393.41;;;5.16;52.57
71857;BME280;63344;46.980;28.882;2023-03-13T07:32:16;101394.22;;;5.26;50.99
71857;BME280;63344;46.980;28.882;2023-03-13T07:34:43;101388.94;;;5.34;51.34
71857;BME280;63344;46.980;28.882;2023-03-13T07:37:11;101390.63;;;5.44;51.36
71857;BME280;63344;46.980;28.882;2023-03-13T07:39:42;101390.53;;;5.61;51.56
71857;BME280;63344;46.980;28.882;2023-03-13T07:42:10;101389.56;;;5.76;51.39
71857;BME280;63344;46.980;28.882;2023-03-13T07:44:38;101386.84;;;5.88;50.07
71857;BME280;63344;46.980;28.882;2023-03-13T07:47:07;101382.44;;;5.90;50.37
71857;BME280;63344;46.980;28.882;2023-03-13T07:49:34;101386.81;;;5.97;51.24
71857;BME280;63344;46.980;28.882;2023-03-13T07:52:07;101387.50;;;6.23;50.66
71857;BME280;63344;46.980;28.882;2023-03-13T07:54:34;101377.59;;;6.48;49.05
71857;BME280;63344;46.980;28.882;2023-03-13T07:57:05;101382.69;;;6.66;48.01
71857;BME280;63344;46.980;28.882;2023-03-13T07:59:32;101386.19;;;6.70;48.30
71857;BME280;63344;46.980;28.882;2023-03-13T08:02:01;101380.81;;;6.77;47.71
71857;BME280;63344;46.980;28.882;2023-03-13T08:04:32;101391.31;;;6.85;47.22
71857;BME280;63344;46.980;28.882;2023-03-13T08:07:08;101380.63;;;6.93;46.92
71857;BME280;63344;46.980;28.882;2023-03-13T08:09:35;101376.19;;;6.98;46.87
71857;BME280;63344;46.980;28.882;2023-03-13T08:12:05;101372.53;;;7.10;47.17
71857;BME280;63344;46.980;28.882;2023-03-13T08:14:33;101382.91;;;7.25;46.86
71857;BME280;63344;46.980;28.882;2023-03-13T08:17:15;101377.44;;;7.37;46.71
71857;BME280;63344;46.980;28.882;2023-03-13T08:19:42;101357.09;;;7.44;45.90
71857;BME280;63344;46.980;28.882;2023-03-13T08:22:10;101366.44;;;7.68;45.07
71857;BME280;63344;46.980;28.882;2023-03-13T08:24:40;101359.97;;;7.88;45.21
71857;BME280;63344;46.980;28.882;2023-03-13T08:27:22;101345.38;;;8.16;44.25
71857;BME280;63344;46.980;28.882;2023-03-13T08:29:51;101358.16;;;8.44;43.99
71857;BME280;63344;46.980;28.882;2023-03-13T08:32:19;101356.34;;;8.48;43.17
71857;BME280;63344;46.980;28.882;2023-03-13T08:34:49;101368.59;;;8.53;44.13
71857;BME280;63344;46.980;28.882;2023-03-13T08:37:17;101356.97;;;8.61;44.29
71857;BME280;63344;46.980;28.882;2023-03-13T08:39:45;101349.97;;;8.58;43.21
71857;BME280;63344;46.980;28.882;2023-03-13T08:42:14;101357.81;;;8.63;43.00
71857;BME280;63344;46.980;28.882;2023-03-13T08:44:41;101349.03;;;9.06;42.17
71857;BME280;63344;46.980;28.882;2023-03-13T08:47:09;101339.88;;;9.99;39.74
71857;BME280;63344;46.980;28.882;2023-03-13T08:49:36;101348.81;;;10.65;36.61
71857;BME280;63344;46.980;28.882;2023-03-13T08:52:04;101342.22;;;11.95;35.10
71857;BME280;63344;46.980;28.882;2023-03-13T08:54:32;101340.88;;;13.09;31.05
71857;BME280;63344;46.980;28.882;2023-03-13T08:57:00;101350.78;;;14.19;29.62
71857;BME280;63344;46.980;28.882;2023-03-13T08:59:28;101347.34;;;14.79;29.40
71857;BME280;63344;46.980;28.882;2023-03-13T09:01:56;101338.03;;;15.27;28.71
71857;BME280;63344;46.980;28.882;2023-03-13T09:04:23;101333.09;;;15.75;27.10
71857;BME280;63344;46.980;28.882;2023-03-13T09:06:50;101323.56;;;15.67;27.30
71857;BME280;63344;46.980;28.882;2023-03-13T09:09:18;101322.59;;;16.24;26.57
71857;BME280;63344;46.980;28.882;2023-03-13T09:11:45;101343.06;;;16.77;25.43
71857;BME280;63344;46.980;28.882;2023-03-13T09:14:12;101349.94;;;16.13;24.83
71857;BME280;63344;46.980;28.882;2023-03-13T09:16:40;101340.59;;;15.66;26.33
71857;BME280;63344;46.980;28.882;2023-03-13T09:19:07;101334.66;;;14.84;26.95
71857;BME280;63344;46.980;28.882;2023-03-13T09:21:35;101337.09;;;14.27;27.83
71857;BME280;63344;46.980;28.882;2023-03-13T09:24:02;101340.47;;;15.31;27.51
71857;BME280;63344;46.980;28.882;2023-03-13T09:26:30;101334.09;;;14.55;26.70
71857;BME280;63344;46.980;28.882;2023-03-13T09:28:58;101318.03;;;13.93;27.98
71857;BME280;63344;46.980;28.882;2023-03-13T09:31:30;101309.34;;;14.72;27.38
71857;BME280;63344;46.980;28.882;2023-03-13T09:33:58;101322.38;;;14.59;27.94
71857;BME280;63344;46.980;28.882;2023-03-13T09:36:26;101315.91;;;13.80;27.56
71857;BME280;63344;46.980;28.882;2023-03-13T09:38:57;101310.88;;;13.04;28.75
71857;BME280;63344;46.980;28.882;2023-03-13T09:41:38;101307.50;;;12.99;28.40
71857;BME280;63344;46.980;28.882;2023-03-13T09:44:19;101306.84;;;12.44;30.22
71857;BME280;63344;46.980;28.882;2023-03-13T09:47:01;101298.41;;;13.94;27.99
71857;BME280;63344;46.980;28.882;2023-03-13T09:49:41;101279.94;;;15.48;25.90
71857;BME280;63344;46.980;28.882;2023-03-13T09:52:25;101285.28;;;16.37;24.29
71857;BME280;63344;46.980;28.882;2023-03-13T09:55:09;101274.28;;;16.59;24.01
71857;BME280;63344;46.980;28.882;2023-03-13T09:57:52;101269.50;;;17.15;24.43
71857;BME280;63344;46.980;28.882;2023-03-13T10:00:40;101264.03;;;17.48;23.77
71857;BME280;63344;46.980;28.882;2023-03-13T10:03:26;101268.31;;;17.98;23.59
71857;BME280;63344;46.980;28.882;2023-03-13T10:06:09;101280.84;;;17.36;22.66
71857;BME280;63344;46.980;28.882;2023-03-13T10:08:38;101257.28;;;17.25;22.26
71857;BME280;63344;46.980;28.882;2023-03-13T10:16:54;101263.47;;;17.73;21.10
71857;BME280;63344;46.980;28.882;2023-03-13T10:19:31;101257.59;;;17.66;22.36
71857;BME280;63344;46.980;28.882;2023-03-13T10:22:01;101276.31;;;18.14;21.71
71857;BME280;63344;46.980;28.882;2023-03-13T10:27:10;101260.56;;;18.22;21.66
71857;BME280;63344;46.980;28.882;2023-03-13T10:29:39;101272.03;;;18.69;20.81
71857;BME280;63344;46.980;28.882;2023-03-13T10:32:10;101251.31;;;17.36;22.06
71857;BME280;63344;46.980;28.882;2023-03-13T10:34:54;101270.06;;;16.37;23.08
71857;BME280;63344;46.980;28.882;2023-03-13T10:37:25;101259.47;;;15.64;23.42
71857;BME280;63344;46.980;28.882;2023-03-13T10:39:53;101243.69;;;16.63;23.30
71857;BME280;63344;46.980;28.882;2023-03-13T10:42:25;101254.41;;;15.77;23.43
71857;BME280;63344;46.980;28.882;2023-03-13T10:44:58;101230.28;;;15.04;24.82
71857;BME280;63344;46.980;28.882;2023-03-13T10:47:26;101235.25;;;14.14;25.17
71857;BME280;63344;46.980;28.882;2023-03-13T10:49:59;101238.78;;;13.51;26.27
71857;BME280;63344;46.980;28.882;2023-03-13T10:52:31;101232.59;;;14.14;26.38
71857;BME280;63344;46.980;28.882;2023-03-13T10:55:03;101226.94;;;15.18;25.24
71857;BME280;63344;46.980;28.882;2023-03-13T10:57:58;101214.81;;;16.17;23.78
71857;BME280;63344;46.980;28.882;2023-03-13T11:00:35;101214.47;;;16.41;24.25
71857;BME280;63344;46.980;28.882;2023-03-13T11:03:11;101207.97;;;16.62;24.01
71857;BME280;63344;46.980;28.882;2023-03-13T11:05:41;101214.44;;;16.58;23.20
71857;BME280;63344;46.980;28.882;2023-03-13T11:08:20;101197.72;;;15.67;23.51
71857;BME280;63344;46.980;28.882;2023-03-13T11:10:57;101192.19;;;15.53;24.92
71857;BME280;63344;46.980;28.882;2023-03-13T11:13:41;101190.16;;;15.58;24.90
71857;BME280;63344;46.980;28.882;2023-03-13T11:16:37;101184.91;;;15.20;24.49
71857;BME280;63344;46.980;28.882;2023-03-13T11:19:16;101186.84;;;15.70;24.22
71857;BME280;63344;46.980;28.882;2023-03-13T11:22:16;101166.13;;;16.91;23.16
71857;BME280;63344;46.980;28.882;2023-03-13T11:24:46;101174.44;;;17.49;22.12
71857;BME280;63344;46.980;28.882;2023-03-13T11:33:04;101182.84;;;16.63;21.97
71857;BME280;63344;46.980;28.882;2023-03-13T11:36:01;101142.19;;;16.06;22.64
71857;BME280;63344;46.980;28.882;2023-03-13T11:38:37;101157.81;;;15.98;23.22
71857;BME280;63344;46.980;28.882;2023-03-13T11:41:13;101154.72;;;16.39;22.67
71857;BME280;63344;46.980;28.882;2023-03-13T11:47:31;101140.56;;;16.68;22.90
71857;BME280;63344;46.980;28.882;2023-03-13T11:50:00;101156.34;;;17.06;22.22
71857;BME280;63344;46.980;28.882;2023-03-13T11:55:32;101171.56;;;16.41;21.15
71857;BME280;63344;46.980;28.882;2023-03-13T11:58:31;101154.66;;;15.54;22.50
71857;BME280;63344;46.980;28.882;2023-03-13T12:01:09;101140.56;;;16.68;21.92
71857;BME280;63344;46.980;28.882;2023-03-13T12:06:25;101131.03;;;16.47;21.77
71857;BME280;63344;46.980;28.882;2023-03-13T12:12:40;101141.13;;;18.12;20.30
71857;BME280;63344;46.980;28.882;2023-03-13T12:18:06;101123.63;;;18.05;19.69
71857;BME280;63344;46.980;28.882;2023-03-13T12:21:31;101116.81;;;17.24;20.35
71857;BME280;63344;46.980;28.882;2023-03-13T12:24:21;101115.44;;;18.35;19.95
71857;BME280;63344;46.980;28.882;2023-03-13T12:26:59;101136.72;;;17.81;19.47
71857;BME280;63344;46.980;28.882;2023-03-13T12:29:52;101118.88;;;18.66;19.21
71857;BME280;63344;46.980;28.882;2023-03-13T12:32:47;101133.81;;;18.14;18.70
71857;BME280;63344;46.980;28.882;2023-03-13T12:35:21;101121.53;;;17.35;19.36
71857;BME280;63344;46.980;28.882;2023-03-13T12:41:37;101111.41;;;16.94;20.35
71857;BME280;63344;46.980;28.882;2023-03-13T12:44:18;101112.94;;;16.35;20.35
71857;BME280;63344;46.980;28.882;2023-03-13T12:46:52;101111.13;;;16.51;20.66
71857;BME280;63344;46.980;28.882;2023-03-13T13:01:15;101087.00;;;17.29;20.31
71857;BME280;63344;46.980;28.882;2023-03-13T13:03:53;101081.97;;;17.83;20.58
71857;BME280;63344;46.980;28.882;2023-03-13T13:06:22;101089.56;;;17.46;20.51
71857;BME280;63344;46.980;28.882;2023-03-13T13:11:34;101074.00;;;15.08;22.72
71857;BME280;63344;46.980;28.882;2023-03-13T13:16:48;101080.00;;;14.39;24.28
71857;BME280;63344;46.980;28.882;2023-03-13T13:24:58;101088.09;;;15.29;22.27
71857;BME280;63344;46.980;28.882;2023-03-13T13:29:59;101076.22;;;15.00;23.87
71857;BME280;63344;46.980;28.882;2023-03-13T13:32:34;101074.53;;;14.42;24.22
71857;BME280;63344;46.980;28.882;2023-03-13T13:41:03;101083.06;;;13.73;26.03
71857;BME280;63344;46.980;28.882;2023-03-13T13:46:48;101045.44;;;14.17;24.73
71857;BME280;63344;46.980;28.882;2023-03-13T13:49:19;101066.88;;;14.34;24.42
71857;BME280;63344;46.980;28.882;2023-03-13T13:57:18;101072.97;;;14.57;23.45
71857;BME280;63344;46.980;28.882;2023-03-13T14:02:53;101071.50;;;14.31;24.36
71857;BME280;63344;46.980;28.882;2023-03-13T14:05:22;101074.53;;;14.04;24.26
71857;BME280;63344;46.980;28.882;2023-03-13T14:08:02;101089.03;;;13.99;24.18
71857;BME280;63344;46.980;28.882;2023-03-13T14:10:36;101078.22;;;13.81;24.68
71857;BME280;63344;46.980;28.882;2023-03-13T14:13:16;101055.56;;;13.71;25.17
71857;BME280;63344;46.980;28.882;2023-03-13T14:15:49;101076.50;;;13.60;24.96
71857;BME280;63344;46.980;28.882;2023-03-13T14:18:26;101058.78;;;13.38;26.12
71857;BME280;63344;46.980;28.882;2023-03-13T14:21:03;101068.97;;;13.28;26.57
71857;BME280;63344;46.980;28.882;2023-03-13T14:23:43;101065.88;;;13.17;26.79
71857;BME280;63344;46.980;28.882;2023-03-13T14:26:25;101056.22;;;13.14;26.91
71857;BME280;63344;46.980;28.882;2023-03-13T14:28:55;101057.06;;;13.15;27.00
71857;BME280;63344;46.980;28.882;2023-03-13T14:31:34;101064.59;;;13.05;27.72
71857;BME280;63344;46.980;28.882;2023-03-13T14:34:07;101050.06;;;13.12;27.36